Time;durP1;ratioP1;P1;durP2;ratioP2;P2;SDS_P1;SDS_P2;PMS_P1;PMS_P2;Temp;Humidity;BMP_temperature;BMP_pressure;BME280_temperature;BME280_humidity;BME280_pressure;Samples;Min_cycle;Max_cycle;Signal;HPM_P1;HPM_P2
2023/02/09 00:00:38;;;;;;;16.80;11.93;;;4.50;44.00;;;;;;5075142;28;20207;-53
2023/02/09 00:03:04;;;;;;;17.07;10.50;;;4.50;44.10;;;;;;5076511;28;20270;-49
2023/02/09 00:05:29;;;;;;;18.90;11.27;;;4.50;44.10;;;;;;5067089;28;20236;-51
2023/02/09 00:07:55;;;;;;;18.90;10.70;;;4.50;44.00;;;;;;5073681;28;20202;-51
2023/02/09 00:10:21;;;;;;;15.17;9.90;;;4.50;43.90;;;;;;5065594;28;20259;-51
2023/02/09 00:15:30;;;;;;;20.80;12.23;;;4.40;43.80;;;;;;5075315;28;20270;-51
2023/02/09 00:17:56;;;;;;;15.80;10.10;;;4.40;43.90;;;;;;5075878;28;20912;-51
2023/02/09 00:20:21;;;;;;;17.23;10.30;;;4.40;44.00;;;;;;5068152;28;20200;-54
2023/02/09 00:22:47;;;;;;;13.20;9.50;;;4.40;44.10;;;;;;5073051;28;20227;-51
2023/02/09 00:25:12;;;;;;;19.90;11.53;;;4.40;44.10;;;;;;5073435;28;20562;-52
2023/02/09 00:27:38;;;;;;;20.50;11.90;;;4.40;44.00;;;;;;5075700;28;20214;-51
2023/02/09 00:30:04;;;;;;;25.03;14.07;;;4.50;44.00;;;;;;5076019;28;20206;-53
2023/02/09 00:32:31;;;;;;;27.53;14.00;;;4.50;43.90;;;;;;5072598;28;20188;-51
2023/02/09 00:34:57;;;;;;;22.03;13.87;;;4.50;44.00;;;;;;5067378;28;20484;-52
2023/02/09 00:37:23;;;;;;;21.80;13.20;;;4.50;44.20;;;;;;5063003;28;20827;-51
2023/02/09 00:39:49;;;;;;;22.03;13.20;;;4.40;44.30;;;;;;5075561;28;20343;-50
2023/02/09 00:42:15;;;;;;;20.63;13.97;;;4.30;44.70;;;;;;5074866;28;20896;-54
2023/02/09 00:44:40;;;;;;;25.37;14.13;;;4.30;45.30;;;;;;5072841;28;20276;-52
2023/02/09 00:47:07;;;;;;;21.67;13.10;;;4.20;45.60;;;;;;5075151;28;20195;-51
2023/02/09 00:49:33;;;;;;;21.77;13.57;;;4.20;45.80;;;;;;5075682;28;20246;-51
2023/02/09 00:51:58;;;;;;;22.60;13.13;;;4.10;46.30;;;;;;5068252;28;20453;-50
2023/02/09 00:54:24;;;;;;;23.77;14.07;;;4.10;45.80;;;;;;5073203;28;20199;-54
2023/02/09 00:56:50;;;;;;;21.97;13.03;;;4.00;45.90;;;;;;5060185;28;20199;-51
2023/02/09 00:59:16;;;;;;;22.80;13.70;;;4.00;45.90;;;;;;5073681;28;20574;-51
2023/02/09 01:01:42;;;;;;;18.40;11.40;;;4.00;46.00;;;;;;5075364;28;20515;-51
2023/02/09 01:04:07;;;;;;;22.03;13.13;;;3.90;45.90;;;;;;5061658;28;20592;-51
2023/02/09 01:06:33;;;;;;;20.80;12.77;;;3.90;46.00;;;;;;5069110;28;20833;-51
2023/02/09 01:08:59;;;;;;;17.10;12.60;;;3.90;46.00;;;;;;5069107;28;20446;-52
2023/02/09 01:11:27;;;;;;;17.07;11.13;;;3.90;46.20;;;;;;5072136;28;20726;-52
2023/02/09 01:13:58;;;;;;;21.97;14.07;;;3.90;46.20;;;;;;5068934;28;20525;-52
2023/02/09 01:16:24;;;;;;;23.80;12.60;;;3.80;46.30;;;;;;5064153;28;20504;-50
2023/02/09 01:18:50;;;;;;;23.07;12.40;;;3.80;46.30;;;;;;5063564;28;20497;-51
2023/02/09 01:21:18;;;;;;;18.47;11.63;;;3.80;46.20;;;;;;5062516;28;20442;-51
2023/02/09 01:23:45;;;;;;;18.10;11.97;;;3.90;46.20;;;;;;5065032;28;20200;-51
2023/02/09 01:26:12;;;;;;;23.07;12.43;;;3.90;46.00;;;;;;5071375;28;20494;-51
2023/02/09 01:28:38;;;;;;;20.73;13.43;;;3.80;45.90;;;;;;5070271;28;20444;-51
2023/02/09 01:31:05;;;;;;;21.80;11.60;;;3.70;46.00;;;;;;5067252;28;21008;-52
2023/02/09 01:33:32;;;;;;;18.83;12.37;;;3.70;46.00;;;;;;5069457;28;20457;-53
2023/02/09 01:35:58;;;;;;;19.73;11.43;;;3.70;46.00;;;;;;5072008;28;20548;-51
2023/02/09 01:38:24;;;;;;;22.33;11.37;;;3.60;46.10;;;;;;5071469;28;20495;-50
2023/02/09 01:40:50;;;;;;;20.87;11.40;;;3.70;46.10;;;;;;5062714;28;20531;-50
2023/02/09 01:43:16;;;;;;;15.80;10.47;;;3.70;46.00;;;;;;5061046;28;21005;-51
2023/02/09 01:45:44;;;;;;;21.73;11.73;;;3.70;46.10;;;;;;5068827;28;20698;-51
2023/02/09 01:48:13;;;;;;;16.80;10.60;;;3.70;46.00;;;;;;5054552;28;20443;-50
2023/02/09 01:50:44;;;;;;;20.30;12.07;;;3.70;46.00;;;;;;5060125;28;20537;-51
2023/02/09 01:53:10;;;;;;;16.80;10.63;;;3.60;46.10;;;;;;5060323;28;20855;-50
2023/02/09 01:55:42;;;;;;;17.23;10.90;;;3.60;46.30;;;;;;5053742;28;20438;-50
2023/02/09 01:58:14;;;;;;;16.43;9.90;;;3.50;46.30;;;;;;5070317;28;21337;-51
2023/02/09 02:00:40;;;;;;;16.03;9.47;;;3.50;46.20;;;;;;5071525;28;20438;-52
2023/02/09 02:03:10;;;;;;;17.57;10.10;;;3.60;46.20;;;;;;5064418;28;20587;-51
2023/02/09 02:05:40;;;;;;;16.33;9.53;;;3.50;46.20;;;;;;5065016;28;20446;-50
2023/02/09 02:08:18;;;;;;;19.93;10.87;;;3.50;46.20;;;;;;5060005;28;20502;-51
2023/02/09 02:10:44;;;;;;;18.20;10.23;;;3.50;46.10;;;;;;5067896;28;20909;-53
2023/02/09 02:13:10;;;;;;;16.17;9.40;;;3.40;46.10;;;;;;5069404;28;20450;-51
2023/02/09 02:16:03;;;;;;;15.10;9.67;;;3.30;46.50;;;;;;5064480;28;20880;-51
2023/02/09 02:18:43;;;;;;;17.23;10.90;;;3.30;46.60;;;;;;5063546;28;20229;-50
2023/02/09 02:21:14;;;;;;;16.70;9.80;;;3.20;47.00;;;;;;5060603;28;20446;-54
2023/02/09 02:24:04;;;;;;;17.17;10.77;;;3.10;47.30;;;;;;5064471;28;20538;-52
2023/02/09 02:26:59;;;;;;;17.60;10.97;;;3.10;47.30;;;;;;5056773;28;20443;-55
2023/02/09 02:30:01;;;;;;;21.80;10.37;;;3.00;47.70;;;;;;5071728;28;20450;-55
2023/02/09 02:32:39;;;;;;;22.47;12.20;;;3.00;47.40;;;;;;5062703;28;20450;-54
2023/02/09 02:35:27;;;;;;;19.27;10.53;;;3.00;47.20;;;;;;5067337;28;20858;-53
2023/02/09 02:38:32;;;;;;;17.27;11.20;;;2.90;47.10;;;;;;5070710;28;20462;-53
2023/02/09 02:41:00;;;;;;;18.50;10.80;;;2.90;47.50;;;;;;5067481;28;20483;-54
2023/02/09 02:43:53;;;;;;;21.37;12.20;;;2.70;48.00;;;;;;5063105;28;20446;-54
2023/02/09 02:46:51;;;;;;;16.30;10.40;;;2.30;48.70;;;;;;5061535;28;20447;-54
2023/02/09 02:49:38;;;;;;;19.73;10.80;;;2.20;49.40;;;;;;5053549;28;20454;-54
2023/02/09 02:52:08;;;;;;;15.53;10.10;;;2.10;50.00;;;;;;5063553;28;20457;-54
2023/02/09 02:54:38;;;;;;;22.57;11.43;;;2.20;49.70;;;;;;5062334;28;20450;-54
2023/02/09 02:57:09;;;;;;;17.57;10.27;;;2.40;49.60;;;;;;5065348;28;20443;-53
2023/02/09 02:59:41;;;;;;;18.67;10.60;;;2.50;49.30;;;;;;5066376;28;20550;-54
2023/02/09 03:02:12;;;;;;;17.77;10.30;;;2.60;49.00;;;;;;5067942;28;20438;-54
2023/02/09 03:04:39;;;;;;;19.53;10.60;;;2.70;48.60;;;;;;5065199;28;20470;-54
2023/02/09 03:07:06;;;;;;;19.90;10.40;;;2.70;48.40;;;;;;5063515;28;20535;-55
2023/02/09 03:09:32;;;;;;;18.73;10.37;;;2.70;48.40;;;;;;5065762;28;20449;-54
2023/02/09 03:12:10;;;;;;;17.20;9.97;;;2.80;48.20;;;;;;5067667;28;20441;-54
2023/02/09 03:14:55;;;;;;;15.67;10.10;;;2.80;47.90;;;;;;5067243;28;20191;-53
2023/02/09 03:17:40;;;;;;;18.77;11.67;;;2.80;47.80;;;;;;5066878;28;20591;-54
2023/02/09 03:20:21;;;;;;;15.07;10.33;;;2.80;47.50;;;;;;5061244;28;20525;-54
2023/02/09 03:22:51;;;;;;;14.57;9.30;;;2.80;47.40;;;;;;5062589;28;20465;-53
2023/02/09 03:25:33;;;;;;;18.07;10.93;;;2.70;47.40;;;;;;5064471;28;20442;-53
2023/02/09 03:28:10;;;;;;;18.60;9.90;;;2.60;47.70;;;;;;5064774;28;21213;-54
2023/02/09 03:30:40;;;;;;;24.40;11.60;;;2.60;47.80;;;;;;5070684;28;20483;-54
2023/02/09 03:33:20;;;;;;;21.80;10.63;;;2.60;47.80;;;;;;5069125;28;20516;-54
2023/02/09 03:35:52;;;;;;;15.60;9.90;;;2.60;47.80;;;;;;5068291;28;20817;-53
2023/02/09 03:38:17;;;;;;;20.37;11.10;;;2.60;47.70;;;;;;5064456;28;20469;-54
2023/02/09 03:40:43;;;;;;;17.33;10.00;;;2.60;47.70;;;;;;5054042;28;20960;-55
2023/02/09 03:43:10;;;;;;;16.97;9.73;;;2.60;47.60;;;;;;5053785;28;20271;-55
2023/02/09 03:45:36;;;;;;;16.90;10.90;;;2.60;47.60;;;;;;5058229;28;20196;-55
2023/02/09 03:48:04;;;;;;;20.50;12.00;;;2.50;47.60;;;;;;5070531;28;20418;-54
2023/02/09 03:50:30;;;;;;;14.27;10.17;;;2.50;48.00;;;;;;5063429;28;20937;-53
2023/02/09 03:52:56;;;;;;;15.13;10.03;;;2.40;48.10;;;;;;5068958;28;20886;-54
2023/02/09 03:55:22;;;;;;;18.97;10.30;;;2.40;48.20;;;;;;5066942;28;20442;-53
2023/02/09 03:57:48;;;;;;;21.17;11.80;;;2.30;48.40;;;;;;5066591;28;20781;-54
2023/02/09 04:00:14;;;;;;;18.57;10.07;;;2.40;48.50;;;;;;5069447;28;20231;-54
2023/02/09 04:02:40;;;;;;;17.00;9.67;;;2.30;48.60;;;;;;5068722;28;20210;-54
2023/02/09 04:05:06;;;;;;;15.80;8.80;;;2.20;48.80;;;;;;5066286;28;20553;-54
2023/02/09 04:07:31;;;;;;;16.13;10.07;;;2.20;49.00;;;;;;5057723;28;20199;-53
2023/02/09 04:09:57;;;;;;;21.50;10.13;;;2.10;49.10;;;;;;5054396;28;20451;-52
2023/02/09 04:12:22;;;;;;;16.50;10.00;;;2.20;49.30;;;;;;5059570;28;20188;-52
2023/02/09 04:14:48;;;;;;;15.03;9.27;;;2.00;49.20;;;;;;5062556;28;20279;-53
2023/02/09 04:17:13;;;;;;;17.80;10.23;;;2.00;49.60;;;;;;5069971;28;20239;-54
2023/02/09 04:19:39;;;;;;;15.10;9.40;;;2.10;49.60;;;;;;5058748;28;20573;-53
2023/02/09 04:22:05;;;;;;;16.67;8.90;;;2.00;49.20;;;;;;5059214;28;20196;-54
2023/02/09 04:24:30;;;;;;;14.50;9.00;;;2.00;49.50;;;;;;5065268;28;20461;-53
2023/02/09 04:26:56;;;;;;;14.60;8.90;;;2.00;49.40;;;;;;5061678;28;20193;-54
2023/02/09 04:29:22;;;;;;;13.90;8.27;;;1.80;49.40;;;;;;5065071;28;20275;-52
2023/02/09 04:31:47;;;;;;;13.50;8.83;;;1.80;49.80;;;;;;5065717;28;20203;-54
2023/02/09 04:34:13;;;;;;;18.50;8.87;;;1.70;49.50;;;;;;5067345;28;20188;-55
2023/02/09 04:36:38;;;;;;;13.60;9.20;;;1.40;50.30;;;;;;5064204;28;20663;-51
2023/02/09 04:39:04;;;;;;;12.77;8.90;;;0.80;51.40;;;;;;5060905;28;20215;-54
2023/02/09 04:41:29;;;;;;;14.20;8.57;;;0.70;52.60;;;;;;5066001;28;20192;-54
2023/02/09 04:43:55;;;;;;;13.37;8.90;;;1.00;52.60;;;;;;5070651;28;20688;-55
2023/02/09 04:46:21;;;;;;;16.70;9.10;;;1.20;52.00;;;;;;5071364;28;20200;-55
2023/02/09 04:48:46;;;;;;;17.00;10.50;;;1.40;51.50;;;;;;5052102;28;20206;-54
2023/02/09 04:51:13;;;;;;;14.90;9.27;;;1.50;50.90;;;;;;5065208;28;20215;-52
2023/02/09 04:53:38;;;;;;;13.27;8.70;;;1.60;50.60;;;;;;5064155;28;20803;-55
2023/02/09 04:56:04;;;;;;;15.17;8.47;;;1.70;50.60;;;;;;5073508;28;20524;-55
2023/02/09 05:01:18;;;;;;;18.43;9.63;;;1.70;50.30;;;;;;5070435;28;20456;-55
2023/02/09 05:03:44;;;;;;;17.50;9.37;;;1.60;50.40;;;;;;5069761;28;20907;-54
2023/02/09 05:06:10;;;;;;;17.97;9.70;;;1.60;50.60;;;;;;5071364;28;20458;-56
2023/02/09 05:08:35;;;;;;;16.80;8.90;;;1.60;50.60;;;;;;5071185;28;20196;-52
2023/02/09 05:11:01;;;;;;;15.73;9.70;;;1.50;50.60;;;;;;5071669;28;20465;-51
2023/02/09 05:13:27;;;;;;;15.40;9.13;;;1.50;50.80;;;;;;5071440;28;20188;-52
2023/02/09 05:15:53;;;;;;;16.23;9.60;;;1.60;50.70;;;;;;5072498;28;20280;-52
2023/02/09 05:18:20;;;;;;;15.90;9.47;;;1.60;50.20;;;;;;5067800;28;20473;-52
2023/02/09 05:20:46;;;;;;;14.70;8.80;;;1.60;50.10;;;;;;5065138;28;20449;-52
2023/02/09 05:23:12;;;;;;;11.30;8.27;;;1.70;50.20;;;;;;5057490;28;21243;-54
2023/02/09 05:25:38;;;;;;;15.43;9.30;;;1.80;50.10;;;;;;5071239;28;20449;-53
2023/02/09 05:28:04;;;;;;;20.43;10.00;;;1.80;50.00;;;;;;5071483;28;20199;-53
2023/02/09 05:30:30;;;;;;;15.50;9.43;;;1.70;49.90;;;;;;5069083;28;20318;-52
2023/02/09 05:32:56;;;;;;;21.40;10.90;;;1.40;50.10;;;;;;5071206;28;20525;-51
2023/02/09 05:35:21;;;;;;;14.90;9.10;;;1.40;50.50;;;;;;5070862;28;21104;-51
2023/02/09 05:37:47;;;;;;;14.60;9.40;;;1.40;50.70;;;;;;5070678;28;20524;-51
2023/02/09 05:40:12;;;;;;;17.93;10.40;;;1.30;50.70;;;;;;5063994;28;20221;-51
2023/02/09 05:42:38;;;;;;;14.53;8.30;;;1.30;51.20;;;;;;5069129;28;20640;-51
2023/02/09 05:45:04;;;;;;;19.83;10.03;;;1.20;51.10;;;;;;5068789;28;20223;-51
2023/02/09 05:47:29;;;;;;;16.40;9.33;;;1.00;51.60;;;;;;5071750;28;20210;-51
2023/02/09 05:49:55;;;;;;;15.90;8.33;;;0.90;51.70;;;;;;5071508;28;20219;-51
2023/02/09 05:52:21;;;;;;;17.27;8.50;;;0.80;52.20;;;;;;5054215;28;20291;-52
2023/02/09 05:54:47;;;;;;;13.00;7.90;;;0.80;52.20;;;;;;5062625;28;20200;-51
2023/02/09 05:57:13;;;;;;;14.93;9.60;;;0.60;52.60;;;;;;5047289;28;20205;-51
2023/02/09 05:59:39;;;;;;;19.23;9.93;;;0.50;52.80;;;;;;5060986;28;20497;-51
2023/02/09 06:02:04;;;;;;;15.20;9.47;;;0.60;52.80;;;;;;5071015;28;20957;-51
2023/02/09 06:04:30;;;;;;;14.83;7.80;;;0.70;52.80;;;;;;5064717;28;20198;-51
2023/02/09 06:06:56;;;;;;;17.57;9.20;;;0.80;52.60;;;;;;5071320;28;20200;-51
2023/02/09 06:09:22;;;;;;;18.93;9.83;;;1.10;52.30;;;;;;5071249;28;20446;-53
2023/02/09 06:11:48;;;;;;;16.87;8.90;;;1.20;51.60;;;;;;5068159;28;20510;-55
2023/02/09 06:14:14;;;;;;;16.07;9.03;;;1.40;51.10;;;;;;5059659;28;20453;-53
2023/02/09 06:16:39;;;;;;;14.00;8.80;;;1.40;50.60;;;;;;5046199;28;20478;-54
2023/02/09 06:19:07;;;;;;;15.87;9.60;;;1.40;50.30;;;;;;5048060;28;20999;-55
2023/02/09 06:21:33;;;;;;;18.53;9.57;;;1.40;50.50;;;;;;5042492;28;20647;-56
2023/02/09 06:23:58;;;;;;;12.73;8.67;;;1.50;50.50;;;;;;5052580;28;20446;-52
2023/02/09 06:26:24;;;;;;;15.30;9.00;;;1.60;51.00;;;;;;5044153;28;20271;-55
2023/02/09 06:28:49;;;;;;;18.47;10.13;;;2.00;57.60;;;;;;5049285;28;20204;-53
2023/02/09 06:31:15;;;;;;;12.63;7.90;;;2.70;59.80;;;;;;5044258;28;20279;-54
2023/02/09 06:33:41;;;;;;;14.70;9.50;;;3.20;58.80;;;;;;5048913;28;20192;-53
2023/02/09 06:36:07;;;;;;;13.50;8.57;;;3.60;55.70;;;;;;5040531;28;20190;-54
2023/02/09 06:38:34;;;;;;;15.37;8.87;;;4.00;55.00;;;;;;5046106;28;20591;-54
2023/02/09 06:40:59;;;;;;;12.97;8.33;;;4.30;52.70;;;;;;5046255;28;21170;-53
2023/02/09 06:43:25;;;;;;;15.30;9.73;;;4.50;49.30;;;;;;5039953;28;20472;-54
2023/02/09 06:45:51;;;;;;;12.87;8.37;;;4.50;48.90;;;;;;5039454;28;20258;-53
2023/02/09 06:48:16;;;;;;;14.47;10.30;;;4.70;48.40;;;;;;5050992;28;20454;-53
2023/02/09 06:50:42;;;;;;;15.90;9.63;;;4.80;47.80;;;;;;5036465;28;20193;-52
2023/02/09 06:53:08;;;;;;;13.40;9.23;;;4.80;46.30;;;;;;5037116;28;20228;-55
2023/02/09 06:55:34;;;;;;;14.67;9.00;;;4.30;44.00;;;;;;5040430;28;20220;-55
2023/02/09 06:58:00;;;;;;;15.27;8.93;;;4.00;44.70;;;;;;5051166;28;20201;-53
2023/02/09 07:00:26;;;;;;;17.23;10.40;;;3.40;45.30;;;;;;5032530;28;20682;-53
2023/02/09 07:02:52;;;;;;;16.00;10.33;;;2.90;46.50;;;;;;5043095;28;20942;-56
2023/02/09 07:05:18;;;;;;;15.87;9.17;;;2.90;47.00;;;;;;5043108;28;20436;-51
2023/02/09 07:07:44;;;;;;;15.27;9.17;;;3.00;47.10;;;;;;5037224;28;20455;-54
2023/02/09 07:10:12;;;;;;;17.20;10.20;;;3.00;47.20;;;;;;5045295;28;20857;-52
2023/02/09 07:12:39;;;;;;;16.30;9.90;;;3.00;47.40;;;;;;5038610;28;20208;-52
2023/02/09 07:15:06;;;;;;;17.10;9.87;;;3.00;47.60;;;;;;5036065;28;20996;-54
2023/02/09 07:17:32;;;;;;;18.00;11.13;;;3.10;47.50;;;;;;5068485;28;20449;-52
2023/02/09 07:19:57;;;;;;;17.60;11.03;;;3.20;47.40;;;;;;5064767;28;20495;-51
2023/02/09 07:22:24;;;;;;;16.47;10.50;;;3.00;47.30;;;;;;5069676;28;20445;-52
2023/02/09 07:24:50;;;;;;;15.27;9.57;;;3.10;47.40;;;;;;5066817;28;20199;-52
2023/02/09 07:27:16;;;;;;;18.97;12.40;;;3.20;47.20;;;;;;5071112;28;20422;-52
2023/02/09 07:29:42;;;;;;;14.30;10.17;;;3.10;46.80;;;;;;5068138;28;21151;-53
2023/02/09 07:32:08;;;;;;;15.13;9.07;;;3.10;47.20;;;;;;5063700;28;20450;-55
2023/02/09 07:34:39;;;;;;;16.33;9.40;;;3.30;47.30;;;;;;5064878;28;20612;-57
2023/02/09 07:37:06;;;;;;;15.03;9.70;;;3.50;47.20;;;;;;5068268;28;20203;-54
2023/02/09 07:39:35;;;;;;;17.03;9.90;;;3.70;46.90;;;;;;5063891;28;20969;-58
2023/02/09 07:42:06;;;;;;;17.83;10.33;;;3.80;46.20;;;;;;5067468;28;20438;-60
2023/02/09 07:44:32;;;;;;;14.63;9.67;;;4.00;46.10;;;;;;5063927;28;20439;-51
2023/02/09 07:46:58;;;;;;;14.27;9.37;;;4.10;46.40;;;;;;5065170;28;20488;-53
2023/02/09 07:49:23;;;;;;;16.10;10.00;;;4.30;46.30;;;;;;5059367;28;20201;-53
2023/02/09 07:51:49;;;;;;;16.80;9.73;;;4.30;45.60;;;;;;5068657;28;20199;-53
2023/02/09 07:54:14;;;;;;;15.37;10.70;;;4.40;45.60;;;;;;5063900;28;20192;-53
2023/02/09 07:56:40;;;;;;;13.90;9.60;;;4.40;45.30;;;;;;5067709;28;20199;-53
2023/02/09 07:59:06;;;;;;;12.37;9.03;;;3.90;45.80;;;;;;5067094;28;20246;-54
2023/02/09 08:01:33;;;;;;;16.43;8.93;;;3.80;46.20;;;;;;5049186;28;20520;-53
2023/02/09 08:03:59;;;;;;;15.47;10.20;;;3.70;47.20;;;;;;5063088;28;20515;-53
2023/02/09 08:06:27;;;;;;;16.37;10.37;;;3.80;47.50;;;;;;5062256;28;20505;-53
2023/02/09 08:08:53;;;;;;;16.63;10.53;;;3.90;47.50;;;;;;5069895;28;20196;-54
2023/02/09 08:11:25;;;;;;;15.43;10.40;;;4.00;47.40;;;;;;5063134;28;20449;-54
2023/02/09 08:13:53;;;;;;;20.73;11.87;;;4.00;47.60;;;;;;5069986;28;20432;-53
2023/02/09 08:16:21;;;;;;;16.60;9.30;;;4.00;47.60;;;;;;5071312;28;20466;-54
2023/02/09 08:18:57;;;;;;;16.53;9.80;;;4.10;47.60;;;;;;5074039;28;20483;-50
2023/02/09 08:21:24;;;;;;;16.00;10.70;;;3.90;48.00;;;;;;5073986;28;20433;-53
2023/02/09 08:23:53;;;;;;;16.87;9.90;;;3.90;48.00;;;;;;5074353;28;20430;-51
2023/02/09 08:26:19;;;;;;;18.00;10.40;;;4.00;48.10;;;;;;5057949;28;20433;-53
2023/02/09 08:28:45;;;;;;;15.30;10.73;;;4.10;48.50;;;;;;5063627;28;20422;-54
2023/02/09 08:31:18;;;;;;;15.97;10.17;;;4.20;47.80;;;;;;5074173;28;20928;-52
2023/02/09 08:33:46;;;;;;;13.47;9.57;;;4.10;47.90;;;;;;5073402;28;20204;-53
2023/02/09 08:36:12;;;;;;;17.47;11.10;;;4.10;48.00;;;;;;5056790;28;20427;-52
2023/02/09 08:38:38;;;;;;;23.27;11.60;;;3.70;48.90;;;;;;5054000;28;20624;-50
2023/02/09 08:41:05;;;;;;;16.70;12.30;;;3.50;49.60;;;;;;5062586;28;20861;-51
2023/02/09 08:43:31;;;;;;;17.50;10.60;;;3.60;49.80;;;;;;5052088;28;20239;-52
2023/02/09 08:46:11;;;;;;;21.17;11.37;;;3.70;50.00;;;;;;5064702;28;20503;-52
2023/02/09 08:48:40;;;;;;;18.13;11.27;;;3.80;49.60;;;;;;5069750;28;20192;-52
2023/02/09 08:51:07;;;;;;;14.33;10.60;;;3.60;49.20;;;;;;5065632;28;20447;-53
2023/02/09 08:53:34;;;;;;;15.13;11.17;;;3.40;50.40;;;;;;5067093;28;20921;-54
2023/02/09 08:55:59;;;;;;;17.17;11.50;;;3.30;50.60;;;;;;5066730;28;20499;-53
2023/02/09 08:58:25;;;;;;;20.80;12.10;;;3.20;50.80;;;;;;5059926;28;20477;-51
2023/02/09 09:00:55;;;;;;;18.57;12.03;;;3.50;51.20;;;;;;5070467;28;20231;-52
2023/02/09 09:03:22;;;;;;;20.23;12.30;;;3.80;50.70;;;;;;5057859;28;20569;-52
2023/02/09 09:05:47;;;;;;;21.63;12.63;;;4.00;50.10;;;;;;5070827;28;20442;-52
2023/02/09 09:08:13;;;;;;;20.67;13.40;;;4.20;49.50;;;;;;5063974;28;20442;-51
2023/02/09 09:10:39;;;;;;;17.77;13.27;;;4.30;49.20;;;;;;5064621;28;20199;-52
2023/02/09 09:13:04;;;;;;;18.47;12.37;;;4.30;48.60;;;;;;5068587;28;20199;-51
2023/02/09 09:15:30;;;;;;;21.43;13.07;;;4.50;48.60;;;;;;5066854;28;20660;-53
2023/02/09 09:17:55;;;;;;;18.63;12.13;;;4.50;48.50;;;;;;5070936;28;20199;-51
2023/02/09 09:20:21;;;;;;;21.97;14.20;;;4.50;48.40;;;;;;5069030;28;20284;-51
2023/02/09 09:22:47;;;;;;;24.30;15.27;;;4.50;48.60;;;;;;5069523;28;20563;-50
2023/02/09 09:25:12;;;;;;;27.27;16.57;;;4.50;48.20;;;;;;5060249;28;20906;-52
2023/02/09 09:27:38;;;;;;;25.43;15.80;;;4.50;47.80;;;;;;5051055;28;20616;-51
2023/02/09 09:30:04;;;;;;;28.03;16.50;;;4.60;47.50;;;;;;5062116;28;20286;-53
2023/02/09 09:32:30;;;;;;;25.93;16.70;;;4.90;47.30;;;;;;5057318;28;20272;-51
2023/02/09 09:34:57;;;;;;;26.13;16.53;;;4.80;46.60;;;;;;5052200;28;20910;-50
2023/02/09 09:37:25;;;;;;;30.03;17.27;;;4.90;47.00;;;;;;5066054;28;20191;-54
2023/02/09 09:39:51;;;;;;;23.00;16.40;;;5.10;47.00;;;;;;5071352;28;20478;-50
2023/02/09 09:42:51;;;;;;;27.30;17.97;;;5.40;46.30;;;;;;5071841;28;20426;-50
2023/02/09 09:45:21;;;;;;;22.30;15.40;;;5.50;45.80;;;;;;5054567;28;20537;-50
2023/02/09 09:47:48;;;;;;;23.47;15.97;;;5.50;46.00;;;;;;5072628;28;20422;-50
2023/02/09 09:50:21;;;;;;;25.57;16.47;;;5.70;45.90;;;;;;5072407;28;20788;-51
2023/02/09 09:52:51;;;;;;;24.77;16.07;;;5.90;45.80;;;;;;5071576;28;20442;-49
2023/02/09 09:55:23;;;;;;;25.63;16.93;;;5.90;45.10;;;;;;5054303;28;20512;-50
2023/02/09 09:57:51;;;;;;;29.23;17.60;;;5.60;45.40;;;;;;5072212;28;20560;-50
2023/02/09 10:00:26;;;;;;;28.90;17.70;;;5.90;45.80;;;;;;5071899;28;20490;-50
2023/02/09 10:02:52;;;;;;;27.47;18.30;;;6.30;45.40;;;;;;5071519;28;20478;-50
2023/02/09 10:05:29;;;;;;;30.30;17.43;;;6.60;44.70;;;;;;5056804;28;20786;-51
2023/02/09 10:08:01;;;;;;;28.13;19.20;;;6.50;44.30;;;;;;5071337;28;20206;-50
2023/02/09 10:10:44;;;;;;;31.63;19.20;;;6.90;44.50;;;;;;5068585;28;20437;-53
2023/02/09 10:13:43;;;;;;;27.60;19.30;;;7.30;43.50;;;;;;5046931;28;20554;-49
2023/02/09 10:16:18;;;;;;;28.60;18.50;;;7.50;42.70;;;;;;5062665;28;20832;-51
2023/02/09 10:18:44;;;;;;;32.80;20.70;;;7.70;42.10;;;;;;5066157;28;20500;-52
2023/02/09 10:21:13;;;;;;;32.07;19.53;;;7.90;41.80;;;;;;5055957;28;20431;-51
2023/02/09 10:23:45;;;;;;;30.90;20.73;;;7.90;41.70;;;;;;5064423;28;20426;-50
2023/02/09 10:26:11;;;;;;;25.30;18.27;;;7.60;41.60;;;;;;5055677;28;20427;-50
2023/02/09 10:28:49;;;;;;;26.90;19.80;;;7.60;41.90;;;;;;5066033;28;20893;-51
2023/02/09 10:31:23;;;;;;;29.83;19.10;;;7.70;42.60;;;;;;5062062;28;20615;-50
2023/02/09 10:33:54;;;;;;;27.47;19.10;;;8.10;41.90;;;;;;5051834;28;20526;-51
2023/02/09 10:36:51;;;;;;;31.17;21.63;;;8.50;41.70;;;;;;5064783;28;20841;-50
2023/02/09 10:39:29;;;;;;;28.20;19.90;;;8.70;41.30;;;;;;5057393;28;20499;-53
2023/02/09 10:41:59;;;;;;;31.90;20.17;;;8.90;41.10;;;;;;5070657;28;20434;-52
2023/02/09 10:44:32;;;;;;;34.77;21.60;;;9.30;40.40;;;;;;5065644;28;20449;-52
2023/02/09 10:47:30;;;;;;;28.17;20.20;;;9.40;39.70;;;;;;5066554;28;20437;-51
2023/02/09 10:50:15;;;;;;;33.23;21.27;;;9.40;39.20;;;;;;5029083;28;20440;-50
2023/02/09 10:52:54;;;;;;;31.17;21.07;;;9.40;38.80;;;;;;5068157;28;20917;-50
2023/02/09 10:55:41;;;;;;;26.20;18.33;;;9.20;38.80;;;;;;5046790;28;20454;-50
2023/02/09 10:58:19;;;;;;;30.10;21.23;;;9.00;39.10;;;;;;5061244;28;20442;-53
2023/02/09 11:01:08;;;;;;;33.53;20.50;;;9.20;39.30;;;;;;5054007;28;20462;-53
2023/02/09 11:03:35;;;;;;;30.23;21.13;;;9.40;39.20;;;;;;5065749;28;20534;-54
2023/02/09 11:06:18;;;;;;;26.80;20.13;;;9.40;38.60;;;;;;5052400;28;20435;-55
2023/02/09 11:09:02;;;;;;;30.00;20.60;;;9.30;39.70;;;;;;5062786;28;20872;-56
2023/02/09 11:11:34;;;;;;;27.13;21.23;;;9.50;39.40;;;;;;5055244;28;21262;-55
2023/02/09 11:14:01;;;;;;;32.60;19.93;;;10.00;38.30;;;;;;5061942;28;20876;-52
2023/02/09 11:16:52;;;;;;;27.20;20.27;;;10.20;38.10;;;;;;5064548;28;20466;-52
2023/02/09 11:19:21;;;;;;;28.23;19.80;;;10.50;36.70;;;;;;5064739;28;20512;-53
2023/02/09 11:22:28;;;;;;;28.90;20.10;;;10.70;36.40;;;;;;5066838;28;20473;-52
2023/02/09 11:25:09;;;;;;;26.40;20.50;;;10.90;35.60;;;;;;5061591;28;20476;-55
2023/02/09 11:27:59;;;;;;;27.47;20.43;;;10.90;36.50;;;;;;5067180;28;20445;-53
2023/02/09 11:30:39;;;;;;;27.67;19.70;;;11.10;35.50;;;;;;5056351;28;20444;-55
2023/02/09 11:33:28;;;;;;;24.80;18.70;;;11.10;35.40;;;;;;5067370;28;21001;-51
2023/02/09 11:36:14;;;;;;;28.30;19.30;;;11.40;35.40;;;;;;5064729;28;20450;-52
2023/02/09 11:38:45;;;;;;;26.47;19.60;;;11.50;35.00;;;;;;5067618;28;20485;-54
2023/02/09 11:44:04;;;;;;;27.63;20.27;;;11.60;34.80;;;;;;5068511;28;20500;-55
2023/02/09 11:46:33;;;;;;;26.60;20.50;;;11.70;34.80;;;;;;5069442;28;20438;-55
2023/02/09 11:49:09;;;;;;;27.00;20.50;;;11.70;34.20;;;;;;5066070;28;20863;-52
2023/02/09 11:51:39;;;;;;;24.67;20.03;;;11.80;34.30;;;;;;5052443;28;20441;-53
2023/02/09 11:54:25;;;;;;;26.00;20.00;;;11.80;34.70;;;;;;5062007;28;20438;-55
2023/02/09 11:57:04;;;;;;;25.40;19.60;;;12.10;34.60;;;;;;5067319;28;20459;-55
2023/02/09 11:59:45;;;;;;;27.70;19.53;;;12.10;34.70;;;;;;5058812;28;20896;-55
2023/02/09 12:02:44;;;;;;;27.07;19.20;;;12.10;33.70;;;;;;5061950;28;20466;-53
2023/02/09 12:05:16;;;;;;;27.93;18.50;;;12.20;33.80;;;;;;5068657;28;20474;-54
2023/02/09 12:08:15;;;;;;;24.23;19.70;;;12.30;33.60;;;;;;5060440;28;20443;-52
2023/02/09 12:11:15;;;;;;;25.00;18.53;;;12.30;33.10;;;;;;5057964;28;20804;-53
2023/02/09 12:14:11;;;;;;;26.63;19.07;;;12.20;33.50;;;;;;5069059;28;20527;-54
2023/02/09 12:16:41;;;;;;;23.90;18.67;;;12.30;33.00;;;;;;5067149;28;20879;-54
2023/02/09 12:19:22;;;;;;;26.70;20.57;;;12.30;32.80;;;;;;5068635;28;20837;-53
2023/02/09 12:21:48;;;;;;;23.27;18.20;;;12.40;33.10;;;;;;5069364;28;20437;-52
2023/02/09 12:24:36;;;;;;;21.53;18.17;;;12.60;32.70;;;;;;5050844;28;20450;-52
2023/02/09 12:27:02;;;;;;;23.40;18.73;;;12.60;31.50;;;;;;5067867;28;20203;-55
2023/02/09 12:29:38;;;;;;;23.50;19.20;;;12.20;31.70;;;;;;5065951;28;20794;-52
2023/02/09 12:32:04;;;;;;;23.97;19.63;;;12.30;33.00;;;;;;5050669;28;20454;-53
2023/02/09 12:34:51;;;;;;;25.30;18.73;;;12.50;33.70;;;;;;5060771;28;20438;-51
2023/02/09 12:37:23;;;;;;;26.50;19.67;;;12.70;32.80;;;;;;5066782;28;20507;-52
2023/02/09 12:40:19;;;;;;;22.40;18.03;;;12.90;32.30;;;;;;5067965;28;20532;-52
2023/02/09 12:42:51;;;;;;;23.63;17.90;;;13.00;31.30;;;;;;5050223;28;20457;-55
2023/02/09 12:45:42;;;;;;;25.93;19.07;;;13.00;31.10;;;;;;5061643;28;20580;-52
2023/02/09 12:48:07;;;;;;;24.23;17.70;;;13.10;30.70;;;;;;5061315;28;20453;-55
2023/02/09 12:50:42;;;;;;;27.47;18.30;;;13.20;30.70;;;;;;5059727;28;20450;-52
2023/02/09 12:53:23;;;;;;;25.27;17.80;;;13.10;31.00;;;;;;5065650;28;20213;-52
2023/02/09 12:56:15;;;;;;;27.20;19.90;;;13.20;31.40;;;;;;5057533;28;21093;-52
2023/02/09 12:58:43;;;;;;;24.63;18.70;;;13.10;30.90;;;;;;5048194;28;20552;-50
2023/02/09 13:01:10;;;;;;;26.93;20.17;;;13.00;31.70;;;;;;5069430;28;20464;-53
2023/02/09 13:04:01;;;;;;;23.50;18.77;;;13.10;31.20;;;;;;5070369;28;20797;-52